Time;durP1;ratioP1;P1;durP2;ratioP2;P2;SDS_P1;SDS_P2;PMS_P1;PMS_P2;Temp;Humidity;BMP_temperature;BMP_pressure;BME280_temperature;BME280_humidity;BME280_pressure;Samples;Min_cycle;Max_cycle;Signal;HPM_P1;HPM_P2
2023/01/19 00:00:14;;;;;;;17.40;11.03;;;-0.80;99.90;;;;;;4930601;28;20221;-77
2023/01/19 00:02:46;;;;;;;17.87;10.73;;;-0.70;99.90;;;;;;4932281;28;20238;-76
2023/01/19 00:05:13;;;;;;;16.57;10.67;;;-0.80;99.90;;;;;;4945580;28;20265;-76
2023/01/19 00:07:42;;;;;;;17.13;10.87;;;-0.70;99.90;;;;;;4940736;28;20230;-76
2023/01/19 00:10:10;;;;;;;18.23;11.07;;;-0.80;99.90;;;;;;4938078;28;20885;-77
2023/01/19 00:12:39;;;;;;;15.43;10.77;;;-0.80;99.90;;;;;;4944330;28;20247;-77
2023/01/19 00:15:06;;;;;;;16.33;10.63;;;-0.70;99.90;;;;;;4945585;28;20250;-77
2023/01/19 00:17:33;;;;;;;17.63;10.53;;;-0.70;99.90;;;;;;4925789;28;20234;-76
2023/01/19 00:20:02;;;;;;;16.40;10.70;;;-0.60;99.90;;;;;;4928155;28;20227;-76
2023/01/19 00:22:29;;;;;;;18.07;11.07;;;-0.60;99.90;;;;;;4936281;28;20251;-76
2023/01/19 00:24:56;;;;;;;21.53;10.77;;;-0.60;99.90;;;;;;4925333;29;20237;-77
2023/01/19 00:27:23;;;;;;;18.03;10.70;;;-0.50;99.90;;;;;;4924685;28;20274;-76
2023/01/19 00:29:50;;;;;;;18.30;10.97;;;-0.50;99.90;;;;;;4946924;28;20227;-77
2023/01/19 00:32:19;;;;;;;14.67;10.67;;;-0.50;99.90;;;;;;4939843;28;20229;-77
2023/01/19 00:34:48;;;;;;;17.80;11.10;;;-0.50;99.90;;;;;;4945135;28;20285;-76
2023/01/19 00:37:17;;;;;;;17.63;11.20;;;-0.50;99.90;;;;;;4940732;28;20241;-76
2023/01/19 00:39:44;;;;;;;15.60;11.03;;;-0.50;99.90;;;;;;4945411;28;20236;-77
2023/01/19 00:44:57;;;;;;;18.73;10.83;;;-0.50;99.90;;;;;;4926175;28;20234;-76
2023/01/19 00:47:24;;;;;;;17.07;11.27;;;-0.40;99.90;;;;;;4923216;29;20237;-77
2023/01/19 00:49:50;;;;;;;16.67;10.10;;;-0.40;99.90;;;;;;4943188;28;20232;-77
2023/01/19 00:52:19;;;;;;;14.40;10.27;;;-0.40;99.90;;;;;;4942661;28;20247;-77
2023/01/19 00:54:46;;;;;;;15.33;10.27;;;-0.30;99.90;;;;;;4942708;28;20242;-77
2023/01/19 00:57:12;;;;;;;16.23;10.37;;;-0.30;99.90;;;;;;4942721;28;20294;-77
2023/01/19 00:59:39;;;;;;;14.53;10.33;;;-0.30;99.90;;;;;;4938099;29;20317;-77
2023/01/19 01:02:06;;;;;;;16.80;10.77;;;-0.20;99.90;;;;;;4923189;28;20230;-77
2023/01/19 01:04:33;;;;;;;33.23;11.03;;;-0.10;99.90;;;;;;4932246;28;20237;-77
2023/01/19 01:06:59;;;;;;;14.33;10.23;;;-0.10;99.90;;;;;;4926908;28;20239;-78
2023/01/19 01:09:28;;;;;;;20.63;12.17;;;-0.10;99.90;;;;;;4950789;28;20234;-77
2023/01/19 01:11:55;;;;;;;18.07;10.53;;;-0.10;99.90;;;;;;4946965;28;20757;-76
2023/01/19 01:14:23;;;;;;;16.03;10.73;;;0.00;99.90;;;;;;4928878;28;20724;-77
2023/01/19 01:16:50;;;;;;;14.03;10.53;;;0.00;99.90;;;;;;4949639;28;20293;-76
2023/01/19 01:19:17;;;;;;;14.97;10.97;;;0.00;99.90;;;;;;4947382;28;20730;-77
2023/01/19 01:21:47;;;;;;;20.23;11.37;;;0.10;99.90;;;;;;4947915;28;20220;-77
2023/01/19 01:24:15;;;;;;;17.70;11.07;;;0.10;99.90;;;;;;4945169;28;20234;-77
2023/01/19 01:26:43;;;;;;;17.43;10.53;;;0.10;99.90;;;;;;4946768;28;20864;-77
2023/01/19 01:29:10;;;;;;;14.00;10.90;;;0.10;99.90;;;;;;4945635;28;20228;-77
2023/01/19 01:31:37;;;;;;;16.00;10.97;;;0.10;99.90;;;;;;4929059;29;20319;-77
2023/01/19 01:34:03;;;;;;;15.27;10.27;;;0.20;99.90;;;;;;4946272;28;20238;-77
2023/01/19 01:36:32;;;;;;;16.83;10.00;;;0.10;99.90;;;;;;4945317;28;20249;-76
2023/01/19 01:38:59;;;;;;;15.97;10.23;;;0.20;99.90;;;;;;4944213;28;20911;-77
2023/01/19 01:41:26;;;;;;;18.40;10.87;;;0.20;99.90;;;;;;4941212;28;20234;-77
2023/01/19 01:43:57;;;;;;;14.53;10.13;;;0.20;99.90;;;;;;4944896;28;20238;-77
2023/01/19 01:46:25;;;;;;;17.73;10.77;;;0.20;99.90;;;;;;4945277;28;20269;-77
2023/01/19 01:49:01;;;;;;;14.43;10.20;;;0.20;99.90;;;;;;4944321;28;20238;-77
2023/01/19 01:51:31;;;;;;;15.93;10.40;;;0.30;99.90;;;;;;4923399;29;20229;-76
2023/01/19 01:54:05;;;;;;;16.57;10.60;;;0.30;99.90;;;;;;4941590;28;20232;-75
2023/01/19 01:56:35;;;;;;;16.40;10.80;;;0.30;99.90;;;;;;4948601;28;20241;-75
2023/01/19 01:59:07;;;;;;;15.83;9.63;;;0.30;99.90;;;;;;4944309;28;20229;-76
2023/01/19 02:04:20;;;;;;;11.93;9.63;;;0.40;99.90;;;;;;4924749;28;20227;-76
2023/01/19 02:15:15;;;;;;;16.37;10.00;;;0.40;99.90;;;;;;4947039;28;20604;-76
2023/01/19 02:17:42;;;;;;;13.53;9.67;;;0.30;99.90;;;;;;4933153;28;20226;-76
2023/01/19 02:20:10;;;;;;;14.27;10.27;;;0.40;99.90;;;;;;4947034;28;20732;-77
2023/01/19 02:22:48;;;;;;;14.47;9.67;;;0.40;99.90;;;;;;4934151;28;20240;-77
2023/01/19 02:25:17;;;;;;;17.73;9.87;;;0.40;99.90;;;;;;4938686;28;21010;-77
2023/01/19 02:27:44;;;;;;;17.13;10.20;;;0.40;99.90;;;;;;4947535;28;20247;-77
2023/01/19 02:30:13;;;;;;;17.17;10.57;;;0.40;99.90;;;;;;4945570;28;20219;-77
2023/01/19 02:32:39;;;;;;;18.40;10.50;;;0.40;99.90;;;;;;4928712;28;20232;-77
2023/01/19 02:35:07;;;;;;;13.40;8.90;;;0.50;99.90;;;;;;4925653;29;20231;-77
2023/01/19 02:37:38;;;;;;;16.90;9.67;;;0.50;99.90;;;;;;4944056;28;20228;-77
2023/01/19 02:40:10;;;;;;;15.90;10.00;;;0.50;99.90;;;;;;4950135;28;20301;-77
2023/01/19 02:42:43;;;;;;;15.27;10.17;;;0.50;99.90;;;;;;4928051;28;20231;-77
2023/01/19 02:45:13;;;;;;;14.93;9.07;;;0.50;99.90;;;;;;4947869;28;20306;-77
2023/01/19 02:47:43;;;;;;;16.17;9.93;;;0.50;99.90;;;;;;4943967;28;20230;-77
2023/01/19 02:50:35;;;;;;;14.83;9.53;;;0.50;99.90;;;;;;4943574;28;20226;-77
2023/01/19 02:53:12;;;;;;;18.53;10.13;;;0.50;99.90;;;;;;4946215;28;20226;-76
2023/01/19 02:55:42;;;;;;;14.13;9.53;;;0.50;99.90;;;;;;4934951;28;20222;-77
2023/01/19 02:58:21;;;;;;;15.17;10.33;;;0.60;99.90;;;;;;4928536;29;20230;-77
2023/01/19 03:00:55;;;;;;;14.97;10.53;;;0.50;99.90;;;;;;4946769;28;20238;-77
2023/01/19 03:03:30;;;;;;;17.07;10.50;;;0.60;99.90;;;;;;4944880;28;20863;-77
2023/01/19 03:06:05;;;;;;;13.97;9.90;;;0.60;99.90;;;;;;4943900;28;20250;-77
2023/01/19 03:08:43;;;;;;;12.67;9.73;;;0.60;99.90;;;;;;4940732;28;20230;-77
2023/01/19 03:11:11;;;;;;;14.07;10.03;;;0.70;99.90;;;;;;4928422;28;20740;-77
2023/01/19 03:13:45;;;;;;;12.80;9.70;;;0.70;99.90;;;;;;4926388;28;20237;-77
2023/01/19 03:16:17;;;;;;;14.03;10.33;;;0.70;99.90;;;;;;4945954;28;20230;-77
2023/01/19 03:18:47;;;;;;;13.43;10.00;;;0.70;99.90;;;;;;4940761;28;20235;-77
2023/01/19 03:21:18;;;;;;;12.57;9.60;;;0.80;99.90;;;;;;4941897;28;20231;-77
2023/01/19 03:23:47;;;;;;;14.83;11.00;;;0.80;99.90;;;;;;4945005;28;20828;-77
2023/01/19 03:26:18;;;;;;;17.23;10.33;;;0.80;99.90;;;;;;4945239;28;20882;-77
2023/01/19 03:28:47;;;;;;;13.60;10.03;;;0.80;99.90;;;;;;4941657;28;20231;-77
2023/01/19 03:31:17;;;;;;;16.63;10.37;;;0.80;99.90;;;;;;4928989;28;20723;-78
2023/01/19 03:33:49;;;;;;;13.07;10.37;;;0.90;99.90;;;;;;4942406;28;20623;-78
2023/01/19 03:36:20;;;;;;;14.53;9.97;;;0.90;99.90;;;;;;4941592;28;20332;-78
2023/01/19 03:38:49;;;;;;;13.50;9.80;;;0.90;99.90;;;;;;4937964;28;20229;-78
2023/01/19 03:41:19;;;;;;;17.77;10.77;;;0.90;99.90;;;;;;4925483;28;20227;-78
2023/01/19 03:43:51;;;;;;;15.33;10.17;;;0.90;99.90;;;;;;4938525;28;20255;-78
2023/01/19 03:46:20;;;;;;;18.07;10.60;;;1.00;99.90;;;;;;4925712;28;20235;-77
2023/01/19 03:48:49;;;;;;;18.90;11.07;;;1.00;99.90;;;;;;4929253;29;20222;-78
2023/01/19 03:51:18;;;;;;;15.27;10.40;;;1.00;99.90;;;;;;4947804;28;20225;-78
2023/01/19 03:53:45;;;;;;;15.07;9.67;;;1.00;99.90;;;;;;4939504;28;20317;-77
2023/01/19 03:56:18;;;;;;;13.43;9.33;;;1.00;99.90;;;;;;4945140;28;20230;-77
2023/01/19 03:58:45;;;;;;;14.97;11.07;;;1.00;99.90;;;;;;4939766;28;20243;-78
2023/01/19 04:01:13;;;;;;;15.23;10.70;;;1.00;99.90;;;;;;4947578;28;20219;-78
2023/01/19 04:03:40;;;;;;;15.70;10.73;;;1.00;99.90;;;;;;4947352;28;20267;-78
2023/01/19 04:06:08;;;;;;;16.63;10.73;;;1.00;99.90;;;;;;4942771;28;20238;-78
2023/01/19 04:08:35;;;;;;;18.53;11.10;;;1.00;99.90;;;;;;4939462;28;20231;-77
2023/01/19 04:11:01;;;;;;;18.37;11.50;;;1.00;99.90;;;;;;4925644;29;20233;-77
2023/01/19 04:13:28;;;;;;;17.47;11.53;;;1.00;99.90;;;;;;4924531;28;20672;-77
2023/01/19 04:15:58;;;;;;;16.93;11.87;;;1.10;99.90;;;;;;4949116;28;20233;-77
2023/01/19 04:18:26;;;;;;;15.27;12.23;;;1.10;99.90;;;;;;4941523;28;20223;-77
2023/01/19 04:20:53;;;;;;;14.50;11.23;;;1.10;99.90;;;;;;4931454;28;20496;-78
2023/01/19 04:23:20;;;;;;;16.47;11.87;;;1.10;99.90;;;;;;4941268;28;20302;-78
2023/01/19 04:25:47;;;;;;;18.33;11.57;;;1.10;99.90;;;;;;4934492;28;20235;-78
2023/01/19 04:28:14;;;;;;;15.50;11.57;;;1.10;99.90;;;;;;4937884;28;20304;-78
2023/01/19 04:30:41;;;;;;;14.93;11.27;;;1.20;99.90;;;;;;4943155;28;20230;-79
2023/01/19 04:33:08;;;;;;;18.17;11.67;;;1.20;99.90;;;;;;4925475;28;20302;-77
2023/01/19 04:35:36;;;;;;;16.07;11.47;;;1.20;99.90;;;;;;4943112;28;20275;-79
2023/01/19 04:38:03;;;;;;;14.93;11.40;;;1.20;99.90;;;;;;4926459;29;20314;-78
2023/01/19 04:40:31;;;;;;;15.70;11.50;;;1.20;99.90;;;;;;4946497;28;20236;-78
2023/01/19 04:42:57;;;;;;;19.63;12.10;;;1.20;99.90;;;;;;4945314;28;20235;-78
2023/01/19 04:45:24;;;;;;;19.60;13.00;;;1.20;99.90;;;;;;4948064;28;20239;-77
2023/01/19 04:47:51;;;;;;;17.00;12.43;;;1.10;99.90;;;;;;4949799;28;20234;-78
2023/01/19 04:50:18;;;;;;;18.20;12.47;;;1.10;99.90;;;;;;4955525;28;20309;-78
2023/01/19 04:52:47;;;;;;;16.37;11.97;;;1.20;99.90;;;;;;4948891;28;20222;-77
2023/01/19 04:55:15;;;;;;;15.37;12.77;;;1.30;99.90;;;;;;4928182;28;20258;-78
2023/01/19 04:57:42;;;;;;;17.60;12.13;;;1.20;99.90;;;;;;4952775;28;20633;-78
2023/01/19 05:00:10;;;;;;;17.37;12.77;;;1.20;99.90;;;;;;4944785;28;20229;-78
2023/01/19 05:02:37;;;;;;;17.73;12.03;;;1.20;99.90;;;;;;4920393;28;20655;-78
2023/01/19 05:05:04;;;;;;;19.47;13.13;;;1.20;99.90;;;;;;4946918;28;20235;-78
2023/01/19 05:07:31;;;;;;;19.27;13.43;;;1.20;99.90;;;;;;4932325;29;20862;-78
2023/01/19 05:09:59;;;;;;;16.90;12.67;;;1.20;99.90;;;;;;4945872;28;20224;-78
2023/01/19 05:12:26;;;;;;;18.87;13.30;;;1.20;99.90;;;;;;4946087;28;20285;-78
2023/01/19 05:14:53;;;;;;;18.03;12.50;;;1.20;99.90;;;;;;4942588;28;20243;-78
2023/01/19 05:17:20;;;;;;;19.93;13.73;;;1.20;99.90;;;;;;4932183;28;20891;-77
2023/01/19 05:19:47;;;;;;;17.77;13.80;;;1.20;99.90;;;;;;4948788;28;20230;-77
2023/01/19 05:22:15;;;;;;;19.40;13.67;;;1.20;99.90;;;;;;4949071;28;20224;-76
2023/01/19 05:24:42;;;;;;;17.53;12.73;;;1.20;99.90;;;;;;4947854;28;20227;-76
2023/01/19 05:27:10;;;;;;;17.43;13.03;;;1.20;99.90;;;;;;4945820;28;20227;-76
2023/01/19 05:29:37;;;;;;;19.73;13.40;;;1.20;99.90;;;;;;4933552;29;20808;-75
2023/01/19 05:32:05;;;;;;;21.77;14.63;;;1.20;99.90;;;;;;4947516;28;20308;-77
2023/01/19 05:34:32;;;;;;;17.33;13.63;;;1.20;99.90;;;;;;4945704;28;20318;-78
2023/01/19 05:37:01;;;;;;;20.67;13.83;;;1.20;99.90;;;;;;4940333;28;20904;-78
2023/01/19 05:39:29;;;;;;;19.37;13.00;;;1.20;99.90;;;;;;4943370;28;20902;-78
2023/01/19 05:41:55;;;;;;;20.67;13.63;;;1.30;99.90;;;;;;4933946;28;20708;-80
2023/01/19 05:44:23;;;;;;;20.17;13.10;;;1.30;99.90;;;;;;4931899;28;20321;-81
2023/01/19 05:46:50;;;;;;;21.53;13.83;;;1.30;99.90;;;;;;4931167;29;20242;-81
2023/01/19 05:49:17;;;;;;;20.80;14.07;;;1.30;99.90;;;;;;4949232;28;20237;-81
2023/01/19 05:51:45;;;;;;;22.07;13.93;;;1.20;99.90;;;;;;4948374;28;20238;-82
2023/01/19 05:54:14;;;;;;;18.97;13.80;;;1.20;99.90;;;;;;4932273;28;20294;-81
2023/01/19 05:56:41;;;;;;;23.23;14.73;;;1.20;99.90;;;;;;4948919;28;20724;-79
2023/01/19 05:59:09;;;;;;;19.20;14.37;;;1.30;99.90;;;;;;4945549;28;20253;-80
2023/01/19 06:01:38;;;;;;;20.53;14.73;;;1.30;99.90;;;;;;4940775;28;20639;-80
2023/01/19 06:04:05;;;;;;;18.40;14.03;;;1.30;99.90;;;;;;4957873;28;20309;-81
2023/01/19 06:06:32;;;;;;;21.37;15.93;;;1.30;99.90;;;;;;4928484;29;20763;-84
2023/01/19 06:08:59;;;;;;;22.43;15.03;;;1.20;99.90;;;;;;4933981;29;20249;-83
2023/01/19 06:11:28;;;;;;;18.50;13.83;;;1.20;99.90;;;;;;4938079;28;20255;-84
2023/01/19 06:13:55;;;;;;;20.80;15.07;;;1.20;99.90;;;;;;4950370;28;20743;-84
2023/01/19 06:16:21;;;;;;;20.33;14.63;;;1.20;99.90;;;;;;4950679;28;20250;-83
2023/01/19 06:18:49;;;;;;;20.43;15.80;;;1.20;99.90;;;;;;4936178;28;20654;-83
2023/01/19 06:21:16;;;;;;;18.43;14.40;;;1.10;99.90;;;;;;4949078;28;20769;-84
2023/01/19 06:23:43;;;;;;;20.60;14.80;;;1.10;99.90;;;;;;4932952;28;20368;-83
2023/01/19 06:26:10;;;;;;;18.67;14.90;;;1.10;99.90;;;;;;4935304;28;20259;-83
2023/01/19 06:28:37;;;;;;;18.27;14.23;;;1.10;99.90;;;;;;4951648;28;20236;-84
2023/01/19 06:31:03;;;;;;;18.97;13.67;;;1.10;99.90;;;;;;4939522;28;20227;-84
2023/01/19 06:33:30;;;;;;;21.30;14.87;;;1.00;99.90;;;;;;4937669;28;20234;-83
2023/01/19 06:36:01;;;;;;;19.47;14.20;;;1.10;99.90;;;;;;4950163;28;20319;-84
2023/01/19 06:38:28;;;;;;;20.20;14.60;;;1.10;99.90;;;;;;4950231;28;20314;-83
2023/01/19 06:40:57;;;;;;;19.20;15.00;;;1.10;99.90;;;;;;4949895;28;20278;-83
2023/01/19 06:43:25;;;;;;;19.83;15.37;;;1.10;99.90;;;;;;4949419;28;20239;-84
2023/01/19 06:45:52;;;;;;;17.40;14.53;;;1.00;99.90;;;;;;4930158;29;20322;-84
2023/01/19 06:48:19;;;;;;;18.13;14.57;;;1.00;99.90;;;;;;4945131;28;20223;-83
2023/01/19 06:50:47;;;;;;;19.17;15.07;;;1.00;99.90;;;;;;4948627;28;20234;-84
2023/01/19 06:53:16;;;;;;;20.00;15.23;;;1.00;99.90;;;;;;4948246;28;20241;-85
2023/01/19 06:55:43;;;;;;;17.70;14.27;;;1.00;99.90;;;;;;4944646;28;20228;-83
2023/01/19 06:58:11;;;;;;;17.80;14.80;;;1.00;99.90;;;;;;4934850;28;20285;-85
2023/01/19 07:00:37;;;;;;;18.87;14.57;;;0.90;99.90;;;;;;4934754;29;20290;-83
2023/01/19 07:03:06;;;;;;;17.77;14.60;;;0.90;99.90;;;;;;4930490;28;20322;-84
2023/01/19 07:05:34;;;;;;;18.67;14.77;;;1.00;99.90;;;;;;4954768;28;20231;-83
2023/01/19 07:08:01;;;;;;;18.43;14.47;;;1.00;99.90;;;;;;4961120;28;20343;-84
2023/01/19 07:10:29;;;;;;;20.70;15.23;;;1.00;99.90;;;;;;4953611;28;20725;-83
2023/01/19 07:12:57;;;;;;;19.30;14.63;;;1.00;99.90;;;;;;4936763;29;20247;-83
2023/01/19 07:15:24;;;;;;;22.33;15.77;;;1.00;99.90;;;;;;4940797;28;20319;-83
2023/01/19 07:17:50;;;;;;;19.67;15.27;;;1.00;99.90;;;;;;4946192;29;20239;-83
2023/01/19 07:20:18;;;;;;;23.87;15.77;;;1.00;99.90;;;;;;4947060;28;20235;-83
2023/01/19 07:22:45;;;;;;;18.47;15.33;;;1.10;99.90;;;;;;4947150;29;20231;-83
2023/01/19 07:25:13;;;;;;;19.10;15.53;;;1.10;99.90;;;;;;4952816;28;20680;-83
2023/01/19 07:27:44;;;;;;;19.37;15.97;;;1.10;99.90;;;;;;4957119;28;20250;-86
2023/01/19 07:30:15;;;;;;;20.53;15.27;;;1.10;99.90;;;;;;4941740;28;20266;-83
2023/01/19 07:32:45;;;;;;;20.23;15.83;;;1.10;99.90;;;;;;4934718;28;20258;-84
2023/01/19 07:35:14;;;;;;;19.63;15.53;;;1.10;99.90;;;;;;4935299;28;20693;-83
2023/01/19 07:37:41;;;;;;;22.17;16.30;;;1.10;99.90;;;;;;4940181;29;20291;-83
2023/01/19 07:40:09;;;;;;;22.53;16.87;;;1.10;99.90;;;;;;4957819;28;20278;-83
2023/01/19 07:42:36;;;;;;;21.13;16.33;;;1.00;99.90;;;;;;4956331;28;20230;-84
2023/01/19 07:45:05;;;;;;;21.50;16.13;;;1.00;99.90;;;;;;4945510;28;20234;-84
2023/01/19 07:47:32;;;;;;;21.90;17.03;;;1.00;99.90;;;;;;4954170;28;20235;-84
2023/01/19 07:49:59;;;;;;;22.50;16.97;;;1.00;99.90;;;;;;4940797;29;20249;-85
2023/01/19 07:52:27;;;;;;;22.23;16.80;;;1.10;99.90;;;;;;4957078;28;20573;-86
2023/01/19 07:54:53;;;;;;;25.33;17.03;;;1.10;99.90;;;;;;4934946;29;20318;-83
2023/01/19 07:57:20;;;;;;;24.10;17.77;;;1.10;99.90;;;;;;4937565;28;20692;-83
2023/01/19 07:59:47;;;;;;;26.23;18.60;;;1.10;99.90;;;;;;4937096;29;20252;-85
2023/01/19 08:02:15;;;;;;;23.40;18.17;;;1.10;99.90;;;;;;4935845;28;20228;-83
2023/01/19 08:04:47;;;;;;;27.67;18.77;;;1.10;99.90;;;;;;4950855;28;20270;-84
2023/01/19 08:07:14;;;;;;;27.27;19.77;;;1.10;99.90;;;;;;4931767;28;20231;-83
2023/01/19 08:09:44;;;;;;;24.53;18.73;;;1.10;99.90;;;;;;4941654;28;20233;-84
2023/01/19 08:12:10;;;;;;;26.63;18.07;;;1.10;99.90;;;;;;4938222;28;20228;-83
2023/01/19 08:14:40;;;;;;;27.23;18.87;;;1.10;99.90;;;;;;4933690;29;20227;-83
2023/01/19 08:17:06;;;;;;;27.43;19.40;;;1.10;99.90;;;;;;4940806;28;20227;-83
2023/01/19 08:19:36;;;;;;;24.17;18.27;;;1.10;99.90;;;;;;4938499;28;20283;-83
2023/01/19 08:22:04;;;;;;;25.77;18.80;;;1.10;99.90;;;;;;4955655;28;20319;-86
2023/01/19 08:24:31;;;;;;;26.10;18.80;;;1.10;99.90;;;;;;4957193;28;20282;-84
2023/01/19 08:27:02;;;;;;;25.40;19.10;;;1.10;99.90;;;;;;4944546;28;20320;-83
2023/01/19 08:29:30;;;;;;;24.10;19.13;;;1.10;99.90;;;;;;4957813;28;20227;-85
2023/01/19 08:32:01;;;;;;;25.97;19.43;;;1.10;99.90;;;;;;4954911;28;20223;-86
2023/01/19 08:34:29;;;;;;;25.23;18.60;;;1.10;99.90;;;;;;4940206;28;20232;-85
2023/01/19 08:37:00;;;;;;;24.03;18.13;;;1.10;99.90;;;;;;4953019;28;20231;-86
2023/01/19 08:39:27;;;;;;;23.23;17.97;;;1.10;99.90;;;;;;4953453;28;20242;-84
2023/01/19 08:41:54;;;;;;;25.03;17.70;;;1.10;99.90;;;;;;4954991;28;20234;-86
2023/01/19 08:44:21;;;;;;;26.30;18.90;;;1.20;99.90;;;;;;4953464;28;20697;-83
2023/01/19 08:46:48;;;;;;;25.93;18.53;;;1.20;99.90;;;;;;4940050;28;20254;-83
2023/01/19 08:49:15;;;;;;;24.87;17.77;;;1.20;99.90;;;;;;4935448;29;20225;-83
2023/01/19 08:51:44;;;;;;;25.70;18.23;;;1.20;99.90;;;;;;4935784;29;20258;-86
2023/01/19 08:54:12;;;;;;;24.63;18.00;;;1.30;99.90;;;;;;4953498;28;20366;-84
2023/01/19 08:56:39;;;;;;;27.03;18.47;;;1.30;99.90;;;;;;4934234;29;20320;-83
2023/01/19 08:59:06;;;;;;;24.00;16.83;;;1.30;99.90;;;;;;4948539;28;20311;-81
2023/01/19 09:01:32;;;;;;;27.33;18.07;;;1.30;99.90;;;;;;4940193;28;20855;-85
2023/01/19 09:03:59;;;;;;;24.23;17.90;;;1.30;99.90;;;;;;4938421;28;20696;-83
2023/01/19 09:06:27;;;;;;;23.13;17.47;;;1.30;99.90;;;;;;4945879;28;20231;-83
2023/01/19 09:08:53;;;;;;;25.83;17.60;;;1.40;99.90;;;;;;4932971;29;20229;-84
2023/01/19 09:11:21;;;;;;;25.20;18.80;;;1.40;99.90;;;;;;4934713;28;20682;-83
2023/01/19 09:13:48;;;;;;;24.47;17.63;;;1.50;99.90;;;;;;4957274;28;20261;-84
2023/01/19 09:16:15;;;;;;;24.97;17.77;;;1.50;99.90;;;;;;4938832;28;20224;-83
2023/01/19 09:18:43;;;;;;;23.83;17.40;;;1.50;99.90;;;;;;4934621;28;20232;-83
2023/01/19 09:21:10;;;;;;;20.97;16.83;;;1.60;99.90;;;;;;4955204;28;20224;-84
2023/01/19 09:23:37;;;;;;;23.07;17.70;;;1.60;99.90;;;;;;4951189;28;20225;-84
2023/01/19 09:26:05;;;;;;;29.70;22.00;;;1.70;99.90;;;;;;4936400;28;20232;-81
2023/01/19 09:28:33;;;;;;;25.17;19.20;;;1.70;99.90;;;;;;4939201;28;20248;-85
2023/01/19 09:31:05;;;;;;;26.07;18.13;;;1.80;99.90;;;;;;4943155;29;20223;-84
2023/01/19 09:33:32;;;;;;;25.00;17.90;;;1.80;99.90;;;;;;4955600;28;20697;-84
2023/01/19 09:35:58;;;;;;;22.47;17.27;;;1.80;99.90;;;;;;4941567;28;20275;-83
2023/01/19 09:38:25;;;;;;;23.30;17.77;;;1.80;99.90;;;;;;4940786;29;20234;-85
2023/01/19 09:40:54;;;;;;;21.90;16.30;;;1.90;99.90;;;;;;4942947;28;20324;-83
2023/01/19 09:43:37;;;;;;;22.43;16.50;;;1.90;99.90;;;;;;4955845;28;20228;-83
2023/01/19 09:46:10;;;;;;;22.73;17.40;;;1.80;99.90;;;;;;4938683;29;20225;-84
2023/01/19 09:48:44;;;;;;;21.33;16.83;;;1.80;99.90;;;;;;4938742;29;20226;-84
2023/01/19 09:51:15;;;;;;;24.37;16.93;;;1.80;99.90;;;;;;4949022;28;20952;-84
2023/01/19 09:53:56;;;;;;;24.37;17.73;;;1.80;99.90;;;;;;4939900;29;20353;-84
2023/01/19 09:56:23;;;;;;;23.60;17.47;;;1.70;99.90;;;;;;4944122;28;20259;-85
2023/01/19 09:58:52;;;;;;;23.07;17.10;;;1.70;99.90;;;;;;4955897;28;20224;-85
2023/01/19 10:01:33;;;;;;;21.33;17.03;;;1.70;99.90;;;;;;4942011;28;20330;-86
2023/01/19 10:04:16;;;;;;;23.13;16.50;;;1.60;99.90;;;;;;4955923;28;20227;-84
2023/01/19 10:06:43;;;;;;;23.47;17.03;;;1.50;99.90;;;;;;4943390;29;20231;-87
2023/01/19 10:09:18;;;;;;;23.77;17.43;;;1.60;99.90;;;;;;4957130;28;20234;-85
2023/01/19 10:11:49;;;;;;;23.60;17.43;;;1.60;99.90;;;;;;4939899;29;20840;-83
2023/01/19 10:14:26;;;;;;;26.27;17.33;;;1.60;99.90;;;;;;4952939;28;20255;-83
2023/01/19 10:17:00;;;;;;;24.47;17.30;;;1.60;99.90;;;;;;4956115;28;20622;-82
2023/01/19 10:19:32;;;;;;;23.60;18.10;;;1.60;99.90;;;;;;4939420;28;20298;-84
2023/01/19 10:22:03;;;;;;;25.47;17.70;;;1.60;99.90;;;;;;4949361;28;20701;-83
2023/01/19 10:24:37;;;;;;;25.77;17.50;;;1.60;99.90;;;;;;4946871;29;20263;-84
2023/01/19 10:27:13;;;;;;;22.50;16.20;;;1.60;99.90;;;;;;4934903;28;20225;-84
2023/01/19 10:29:41;;;;;;;21.20;15.57;;;1.60;99.90;;;;;;4946286;28;20812;-84
2023/01/19 10:32:11;;;;;;;23.27;16.53;;;1.60;99.90;;;;;;4939144;28;20227;-84
2023/01/19 10:34:38;;;;;;;24.83;18.50;;;1.60;99.90;;;;;;4947965;29;20223;-83
2023/01/19 10:37:16;;;;;;;25.73;17.30;;;1.60;99.90;;;;;;4945538;28;20224;-84
2023/01/19 10:39:43;;;;;;;23.67;17.03;;;1.60;99.90;;;;;;4952114;28;20227;-83
2023/01/19 10:42:13;;;;;;;28.03;17.60;;;1.60;99.90;;;;;;4952134;28;20238;-83
2023/01/19 10:44:41;;;;;;;23.47;17.50;;;1.60;99.90;;;;;;4953321;28;20252;-82
2023/01/19 10:47:16;;;;;;;24.10;17.20;;;1.70;99.90;;;;;;4932404;28;20220;-84
2023/01/19 10:49:43;;;;;;;22.27;16.37;;;1.70;99.90;;;;;;4948333;28;20880;-83
2023/01/19 10:52:26;;;;;;;23.97;17.13;;;1.80;99.90;;;;;;4938179;28;20230;-83
2023/01/19 10:54:53;;;;;;;24.57;16.90;;;1.80;99.90;;;;;;4937371;28;20339;-83
2023/01/19 10:57:27;;;;;;;24.17;16.43;;;1.90;99.90;;;;;;4934861;28;20231;-83
2023/01/19 10:59:55;;;;;;;22.70;16.33;;;1.90;99.90;;;;;;4949318;28;20263;-85
2023/01/19 11:02:28;;;;;;;21.17;15.40;;;1.90;99.90;;;;;;4931852;29;20230;-83
2023/01/19 11:05:16;;;;;;;22.27;15.53;;;1.90;99.90;;;;;;4944018;28;20255;-83
2023/01/19 11:07:42;;;;;;;25.13;15.73;;;2.00;99.90;;;;;;4930268;28;20235;-83
2023/01/19 11:10:21;;;;;;;19.80;15.17;;;2.00;99.90;;;;;;4950660;28;20232;-83
2023/01/19 11:12:59;;;;;;;19.73;14.57;;;2.00;99.90;;;;;;4950758;28;20224;-84
2023/01/19 11:15:32;;;;;;;25.03;17.37;;;2.10;99.90;;;;;;4929851;29;20262;-83
2023/01/19 11:17:59;;;;;;;21.80;16.53;;;2.10;99.90;;;;;;4950775;28;20223;-83
2023/01/19 11:20:29;;;;;;;17.87;13.53;;;2.10;99.90;;;;;;4932962;28;20580;-83
2023/01/19 11:23:07;;;;;;;19.00;14.77;;;2.20;99.90;;;;;;4930306;29;20216;-82
2023/01/19 11:25:36;;;;;;;18.77;14.30;;;2.10;99.90;;;;;;4932109;28;20240;-83
2023/01/19 11:28:03;;;;;;;18.83;13.90;;;2.20;99.90;;;;;;4952147;28;21114;-83
2023/01/19 11:30:32;;;;;;;17.10;13.80;;;2.30;99.90;;;;;;4935699;28;20237;-83
2023/01/19 11:32:58;;;;;;;20.73;14.40;;;2.30;99.90;;;;;;4931630;29;20223;-84
2023/01/19 11:35:33;;;;;;;16.90;13.80;;;2.30;99.90;;;;;;4948169;28;20327;-82
2023/01/19 11:38:24;;;;;;;18.60;13.83;;;2.30;99.90;;;;;;4946548;28;20577;-84
2023/01/19 11:40:54;;;;;;;19.57;14.17;;;2.30;99.90;;;;;;4926692;29;20246;-83
2023/01/19 11:43:22;;;;;;;20.40;14.93;;;2.40;99.90;;;;;;4933585;28;20306;-83
2023/01/19 11:45:55;;;;;;;17.87;14.20;;;2.40;99.90;;;;;;4932599;29;20236;-83
2023/01/19 11:48:28;;;;;;;18.40;14.47;;;2.40;99.90;;;;;;4937822;28;20229;-82
2023/01/19 11:51:02;;;;;;;20.43;14.13;;;2.40;99.90;;;;;;4944050;28;20266;-83
2023/01/19 11:53:32;;;;;;;18.13;14.47;;;2.50;99.90;;;;;;4940964;28;20229;-82
2023/01/19 11:56:03;;;;;;;17.37;13.33;;;2.50;99.90;;;;;;4932351;29;20230;-83
2023/01/19 11:58:33;;;;;;;23.13;14.67;;;2.50;99.90;;;;;;4949362;28;20629;-83
2023/01/19 12:01:06;;;;;;;21.63;14.33;;;2.60;99.90;;;;;;4949368;28;20660;-83
2023/01/19 12:03:40;;;;;;;21.27;15.30;;;2.50;99.90;;;;;;4928230;29;20228;-83
2023/01/19 12:06:14;;;;;;;17.77;14.30;;;2.60;99.90;;;;;;4927737;29;20254;-83
2023/01/19 12:08:44;;;;;;;19.07;13.37;;;2.60;99.90;;;;;;4929753;29;20239;-84
2023/01/19 12:11:19;;;;;;;18.90;13.93;;;2.70;99.90;;;;;;4934999;28;20657;-83
2023/01/19 12:13:50;;;;;;;16.07;13.57;;;2.70;99.90;;;;;;4940881;28;20703;-83
2023/01/19 12:16:21;;;;;;;18.23;12.80;;;2.70;99.90;;;;;;4952314;28;20234;-82
2023/01/19 12:18:51;;;;;;;19.43;13.73;;;2.80;99.90;;;;;;4945969;28;20223;-83
2023/01/19 12:21:21;;;;;;;18.30;13.17;;;2.80;99.90;;;;;;4948149;28;20239;-83
2023/01/19 12:24:00;;;;;;;15.83;13.03;;;2.80;99.90;;;;;;4948892;28;20252;-83
2023/01/19 12:26:35;;;;;;;19.37;13.97;;;2.80;99.90;;;;;;4946250;28;20916;-83
2023/01/19 12:29:11;;;;;;;19.57;12.53;;;2.80;99.90;;;;;;4948036;28;20416;-83
2023/01/19 12:31:41;;;;;;;18.20;13.50;;;2.80;99.90;;;;;;4944161;28;20848;-83
2023/01/19 12:34:30;;;;;;;19.13;13.47;;;2.80;99.90;;;;;;4948731;28;20233;-83
2023/01/19 12:37:03;;;;;;;17.87;13.33;;;2.90;99.90;;;;;;4947348;29;20252;-83
2023/01/19 12:39:34;;;;;;;18.43;14.30;;;2.90;99.90;;;;;;4947702;29;20249;-83
2023/01/19 12:42:11;;;;;;;21.33;15.67;;;3.00;99.90;;;;;;4946456;29;20239;-82
2023/01/19 12:44:38;;;;;;;17.67;13.27;;;3.00;99.90;;;;;;4947112;29;20252;-83
2023/01/19 12:47:23;;;;;;;16.97;13.07;;;3.00;99.90;;;;;;4948857;28;20315;-83
2023/01/19 12:49:52;;;;;;;18.43;13.30;;;3.10;99.90;;;;;;4946499;29;20234;-83
2023/01/19 12:52:27;;;;;;;17.47;13.50;;;3.20;99.90;;;;;;4949613;28;20240;-84
2023/01/19 12:55:01;;;;;;;16.63;12.43;;;3.20;99.90;;;;;;4949305;28;20231;-83
2023/01/19 12:57:33;;;;;;;19.13;13.07;;;3.20;99.90;;;;;;4931398;28;20244;-84
2023/01/19 13:00:04;;;;;;;16.07;11.77;;;3.30;99.90;;;;;;4943963;28;20227;-83